Terminal Aerodrome Forecast
Issued by NWS Huntsville, AL

Home | Current Version | Previous Version | Text Only | Print | Product List | Glossary On
Versions: 1 2 3 4 5 6 7 8 9 10 11 12 13 14 15 16
000
FTUS44 KHUN 241139
TAFHSV
TAF
KHSV 241139Z 2412/2512 VRB04KT P6SM SCT250
     FM241500 17009KT P6SM SCT250
     FM241800 18010G17KT P6SM SCT050 BKN250
     FM250300 17012G20KT P6SM SCT040 BKN120
     FM250700 20012G22KT P6SM VCTS BKN025CB OVC040=

USA.gov is the U.S. government's official web portal to all federal, state and local government web resources and services.